createdAt,value
2018-08-23T00:00:08.006Z,26.9
2018-08-23T00:02:04.699Z,26.9
2018-08-23T00:04:05.344Z,26.9
2018-08-23T00:06:07.610Z,26.9
2018-08-23T00:08:04.830Z,26.9
2018-08-23T00:10:08.073Z,26.9
2018-08-23T00:12:04.858Z,26.9
2018-08-23T00:14:05.637Z,26.9
2018-08-23T00:16:07.900Z,26.9
2018-08-23T00:18:04.867Z,26.9
2018-08-23T00:20:05.517Z,26.9
2018-08-23T00:22:05.200Z,26.8
2018-08-23T00:24:04.895Z,26.8
2018-08-23T00:26:05.165Z,26.8
2018-08-23T00:28:04.980Z,26.8
2018-08-23T00:30:04.746Z,26.8
2018-08-23T00:32:04.944Z,26.8
2018-08-23T00:34:07.209Z,26.8
2018-08-23T00:36:04.927Z,26.8
2018-08-23T00:38:05.638Z,26.8
2018-08-23T00:40:07.831Z,26.7
2018-08-23T00:42:05.575Z,26.7
2018-08-23T00:44:07.808Z,26.8
2018-08-23T00:46:08.010Z,26.7
2018-08-23T00:48:04.668Z,26.7
2018-08-23T00:50:07.404Z,26.7
2018-08-23T00:52:07.588Z,26.7
2018-08-23T00:54:12.925Z,26.6
2018-08-23T00:56:10.147Z,26.7
2018-08-23T00:58:07.360Z,26.6
2018-08-23T01:00:05.140Z,26.6
2018-08-23T01:02:04.835Z,26.6
2018-08-23T01:04:05.612Z,26.6
2018-08-23T01:06:05.318Z,26.6
2018-08-23T01:08:05.811Z,26.6
2018-08-23T01:10:04.867Z,26.6
2018-08-23T01:12:05.522Z,26.6
2018-08-23T01:14:05.230Z,26.6
2018-08-23T01:16:04.953Z,26.5
2018-08-23T01:18:04.845Z,26.5
2018-08-23T01:20:05.656Z,26.5
2018-08-23T01:22:05.345Z,26.5
2018-08-23T01:24:10.153Z,26.5
2018-08-23T01:26:05.341Z,26.5
2018-08-23T01:28:08.108Z,26.5
2018-08-23T01:30:10.369Z,26.5
2018-08-23T01:32:07.647Z,26.5
2018-08-23T01:34:05.371Z,26.5
2018-08-23T01:36:08.155Z,26.5
2018-08-23T01:38:07.389Z,26.4
2018-08-23T01:40:05.316Z,26.4
2018-08-23T01:42:05.213Z,26.4
2018-08-23T01:44:05.064Z,26.4
2018-08-23T01:46:07.403Z,26.4
2018-08-23T01:48:05.216Z,26.4
2018-08-23T01:50:04.918Z,26.4
2018-08-23T01:52:07.181Z,26.4
2018-08-23T01:54:10.457Z,26.4
2018-08-23T01:56:04.750Z,26.4
2018-08-23T01:58:05.436Z,26.4
2018-08-23T02:00:05.322Z,26.4
2018-08-23T02:02:07.490Z,26.4
2018-08-23T02:04:05.178Z,26.4
2018-08-23T02:06:05.400Z,26.4
2018-08-23T02:08:05.064Z,26.4
2018-08-23T02:10:04.765Z,26.4
2018-08-23T02:12:05.495Z,26.4
2018-08-23T02:14:04.769Z,26.4
2018-08-23T02:16:05.532Z,26.4
2018-08-23T02:18:04.967Z,26.3
2018-08-23T02:20:04.754Z,26.3
2018-08-23T02:22:05.033Z,26.3
2018-08-23T02:24:04.758Z,26.3
2018-08-23T02:26:07.517Z,26.3
2018-08-23T02:28:10.542Z,26.3
2018-08-23T02:30:05.261Z,26.3
2018-08-23T02:32:05.495Z,26.3
2018-08-23T02:34:05.214Z,26.3
2018-08-23T02:36:04.935Z,26.3
2018-08-23T02:38:04.608Z,26.3
2018-08-23T02:40:05.515Z,26.3
2018-08-23T02:42:07.301Z,26.2
2018-08-23T02:44:15.174Z,26.2
2018-08-23T02:46:07.969Z,26.2
2018-08-23T02:48:07.215Z,26.2
2018-08-23T02:50:05.002Z,26.2
2018-08-23T02:52:04.748Z,26.2
2018-08-23T02:54:05.544Z,26.2
2018-08-23T02:56:05.295Z,26.2
2018-08-23T02:58:08.024Z,26.2
2018-08-23T03:00:04.712Z,26.2
2018-08-23T03:02:07.966Z,26.2
2018-08-23T03:04:04.764Z,26.2
2018-08-23T03:06:08.067Z,26.2
2018-08-23T03:08:04.793Z,26.1
2018-08-23T03:10:05.472Z,26.1
2018-08-23T03:12:05.188Z,26.1
2018-08-23T03:14:07.504Z,26.1
2018-08-23T03:16:04.784Z,26.1
2018-08-23T03:18:04.785Z,26.1
2018-08-23T03:20:05.472Z,26.1
2018-08-23T03:22:05.178Z,26
2018-08-23T03:24:07.467Z,26
2018-08-23T03:26:05.239Z,26
2018-08-23T03:28:07.411Z,26
2018-08-23T03:30:05.104Z,26
2018-08-23T03:32:04.783Z,26
2018-08-23T03:34:15.647Z,26
2018-08-23T03:36:05.349Z,26
2018-08-23T03:38:12.640Z,25.9
2018-08-23T03:40:04.897Z,25.9
2018-08-23T03:42:04.635Z,25.9
2018-08-23T03:44:05.290Z,25.9
2018-08-23T03:46:05.089Z,25.9
2018-08-23T03:48:04.812Z,25.9
2018-08-23T03:50:05.600Z,25.9
2018-08-23T03:52:05.335Z,25.9
2018-08-23T03:54:05.035Z,25.9
2018-08-23T03:56:04.757Z,25.9
2018-08-23T03:58:13.059Z,25.9
2018-08-23T04:00:04.762Z,25.9
2018-08-23T04:02:10.514Z,25.9
2018-08-23T04:04:10.252Z,25.8
2018-08-23T04:06:04.944Z,25.8
2018-08-23T04:08:04.619Z,25.9
2018-08-23T04:10:07.817Z,25.8
2018-08-23T04:12:05.640Z,25.8
2018-08-23T04:14:05.384Z,25.8
2018-08-23T04:16:05.127Z,25.8
2018-08-23T04:18:07.560Z,25.8
2018-08-23T04:20:05.268Z,25.8
2018-08-23T04:22:05.089Z,25.8
2018-08-23T04:24:09.933Z,25.8
2018-08-23T04:26:04.653Z,25.8
2018-08-23T04:28:05.385Z,25.8
2018-08-23T04:30:08.046Z,25.7
2018-08-23T04:32:04.500Z,25.7
2018-08-23T04:34:07.812Z,25.7
2018-08-23T04:36:07.601Z,25.7
2018-08-23T04:38:05.304Z,25.7
2018-08-23T04:40:05.000Z,25.7
2018-08-23T04:42:04.729Z,25.7
2018-08-23T04:44:05.413Z,25.7
2018-08-23T04:46:05.095Z,25.7
2018-08-23T04:48:04.783Z,25.7
2018-08-23T04:50:05.470Z,25.7
2018-08-23T04:52:05.227Z,25.7
2018-08-23T04:54:04.918Z,25.6
2018-08-23T04:56:10.694Z,25.7
2018-08-23T04:58:04.931Z,25.7
2018-08-23T05:00:04.614Z,25.6
2018-08-23T05:02:04.855Z,25.6
2018-08-23T05:04:05.563Z,25.6
2018-08-23T05:06:07.501Z,25.7
2018-08-23T05:08:05.192Z,25.6
2018-08-23T05:10:07.453Z,25.6
2018-08-23T05:12:04.751Z,25.6
2018-08-23T05:14:05.439Z,25.6
2018-08-23T05:16:05.308Z,25.6
2018-08-23T05:18:04.725Z,25.6
2018-08-23T05:20:05.418Z,25.6
2018-08-23T05:22:07.724Z,25.7
2018-08-23T05:24:05.443Z,25.7
2018-08-23T05:26:05.138Z,25.7
2018-08-23T05:28:05.497Z,25.7
2018-08-23T05:30:04.964Z,25.7
2018-08-23T05:32:05.123Z,25.7
2018-08-23T05:34:05.354Z,25.7
2018-08-23T05:36:05.012Z,25.7
2018-08-23T05:38:05.234Z,25.8
2018-08-23T05:40:05.347Z,25.8
2018-08-23T05:42:12.665Z,25.9
2018-08-23T05:44:05.330Z,25.9
2018-08-23T05:46:07.648Z,25.9
2018-08-23T05:48:05.384Z,25.9
2018-08-23T05:50:05.591Z,25.9
2018-08-23T05:52:05.313Z,25.9
2018-08-23T05:54:10.564Z,26
2018-08-23T05:56:04.811Z,26
2018-08-23T05:58:05.009Z,26
2018-08-23T06:00:04.767Z,26
2018-08-23T06:02:04.965Z,26
2018-08-23T06:04:04.743Z,26.1
2018-08-23T06:06:05.119Z,26.1
2018-08-23T06:08:04.913Z,26.1
2018-08-23T06:10:07.174Z,26.2
2018-08-23T06:12:07.871Z,26.2
2018-08-23T06:14:05.600Z,26.2
2018-08-23T06:16:05.430Z,26.2
2018-08-23T06:18:05.358Z,26.3
2018-08-23T06:20:05.083Z,26.3
2018-08-23T06:22:08.160Z,26.3
2018-08-23T06:24:05.388Z,26.4
2018-08-23T06:26:05.101Z,26.4
2018-08-23T06:28:04.778Z,26.4
2018-08-23T06:30:05.531Z,26.5
2018-08-23T06:32:05.227Z,26.4
2018-08-23T06:34:05.195Z,26.5
2018-08-23T06:36:14.234Z,26.5
2018-08-23T06:38:07.465Z,26.5
2018-08-23T06:40:07.879Z,26.5
2018-08-23T06:42:04.813Z,26.5
2018-08-23T06:44:05.041Z,26.5
2018-08-23T06:46:09.867Z,26.5
2018-08-23T06:48:05.489Z,26.6
2018-08-23T06:50:04.840Z,26.6
2018-08-23T06:52:05.565Z,26.6
2018-08-23T06:54:07.941Z,26.6
2018-08-23T06:56:07.972Z,26.6
2018-08-23T06:58:04.722Z,26.6
2018-08-23T07:00:07.965Z,26.7
2018-08-23T07:02:05.069Z,26.6
2018-08-23T07:04:04.767Z,26.7
2018-08-23T07:06:08.044Z,26.7
2018-08-23T07:08:05.169Z,26.7
2018-08-23T07:10:06.489Z,26.8
2018-08-23T07:12:05.184Z,26.7
2018-08-23T07:14:05.361Z,26.8
2018-08-23T07:16:05.104Z,26.8
2018-08-23T07:18:07.746Z,26.8
2018-08-23T07:20:04.639Z,26.8
2018-08-23T07:22:05.601Z,26.8
2018-08-23T07:24:05.382Z,26.8
2018-08-23T07:26:05.281Z,26.8
2018-08-23T07:28:09.685Z,26.9
2018-08-23T07:30:05.495Z,26.9
2018-08-23T07:32:04.824Z,26.9
2018-08-23T07:34:05.711Z,26.9
2018-08-23T07:36:05.613Z,26.9
2018-08-23T07:38:05.662Z,26.9
2018-08-23T07:40:05.426Z,26.8
2018-08-23T07:42:05.324Z,26.9
2018-08-23T07:44:05.608Z,26.8
2018-08-23T07:46:05.288Z,26.8
2018-08-23T07:48:07.942Z,27
2018-08-23T07:50:04.614Z,26.9
2018-08-23T07:52:05.367Z,27
2018-08-23T07:54:05.166Z,27
2018-08-23T07:56:05.472Z,27
2018-08-23T07:58:07.709Z,27
2018-08-23T08:00:05.427Z,27
2018-08-23T08:02:05.111Z,27
2018-08-23T08:04:14.962Z,26.9
2018-08-23T08:06:04.630Z,27
2018-08-23T08:08:05.281Z,27
2018-08-23T08:10:10.045Z,27
2018-08-23T08:12:04.697Z,27.1
2018-08-23T08:14:05.380Z,27.1
2018-08-23T08:16:05.044Z,27.1
2018-08-23T08:18:04.907Z,27.1
2018-08-23T08:20:04.616Z,27.1
2018-08-23T08:22:07.885Z,27.2
2018-08-23T08:24:04.664Z,27.1
2018-08-23T08:26:04.639Z,27.2
2018-08-23T08:28:05.405Z,27.1
2018-08-23T08:30:12.642Z,26.9
2018-08-23T08:32:05.449Z,26.9
2018-08-23T08:34:05.198Z,27
2018-08-23T08:36:04.886Z,27
2018-08-23T08:38:07.611Z,27
2018-08-23T08:40:05.262Z,27.1
2018-08-23T08:42:08.025Z,27
2018-08-23T08:44:07.250Z,27.1
2018-08-23T08:46:05.467Z,27.1
2018-08-23T08:48:04.662Z,27.1
2018-08-23T08:50:09.951Z,27.1
2018-08-23T08:52:05.200Z,27.1
2018-08-23T08:54:09.987Z,27
2018-08-23T08:56:04.906Z,27
2018-08-23T08:58:05.113Z,27
2018-08-23T09:00:04.814Z,27
2018-08-23T09:02:05.481Z,27
2018-08-23T09:04:05.153Z,27.1
2018-08-23T09:06:04.865Z,27.2
2018-08-23T09:08:05.692Z,27.3
2018-08-23T09:10:06.498Z,27.4
2018-08-23T09:12:05.162Z,27.4
2018-08-23T09:14:04.882Z,27.4
2018-08-23T09:16:10.831Z,27.5
2018-08-23T09:18:05.353Z,27.5
2018-08-23T09:20:07.574Z,27.5
2018-08-23T09:22:12.913Z,27.5
2018-08-23T09:24:05.688Z,27.5
2018-08-23T09:26:05.631Z,27.5
2018-08-23T09:28:04.872Z,27.6
2018-08-23T09:30:04.640Z,27.6
2018-08-23T09:32:07.882Z,27.6
2018-08-23T09:34:04.714Z,27.6
2018-08-23T09:36:05.418Z,27.6
2018-08-23T09:38:05.058Z,27.7
2018-08-23T09:40:07.369Z,27.7
2018-08-23T09:42:10.154Z,27.7
2018-08-23T09:44:07.460Z,27.7
2018-08-23T09:46:05.201Z,27.6
2018-08-23T09:48:04.915Z,27.7
2018-08-23T09:50:13.280Z,27.7
2018-08-23T09:52:05.117Z,27.7
2018-08-23T09:54:05.008Z,27.7
2018-08-23T09:56:04.792Z,27.6
2018-08-23T09:58:04.699Z,27.7
2018-08-23T10:00:05.474Z,27.7
2018-08-23T10:02:05.293Z,27.7
2018-08-23T10:04:04.988Z,27.7
2018-08-23T10:06:04.753Z,27.7
2018-08-23T10:08:13.059Z,27.7
2018-08-23T10:10:05.327Z,27.7
2018-08-23T10:12:05.529Z,27.7
2018-08-23T10:14:07.807Z,27.8
2018-08-23T10:16:05.475Z,27.7
2018-08-23T10:18:05.370Z,27.8
2018-08-23T10:20:05.056Z,27.8
2018-08-23T10:22:04.736Z,27.8
2018-08-23T10:24:05.380Z,27.9
2018-08-23T10:26:05.100Z,27.8
2018-08-23T10:28:04.840Z,27.8
2018-08-23T10:30:07.622Z,27.8
2018-08-23T10:32:05.366Z,27.8
2018-08-23T10:34:04.973Z,27.8
2018-08-23T10:36:09.730Z,27.8
2018-08-23T10:38:05.424Z,27.8
2018-08-23T10:40:05.360Z,27.8
2018-08-23T10:42:05.011Z,27.8
2018-08-23T10:44:04.729Z,27.8
2018-08-23T10:46:08.143Z,27.8
2018-08-23T10:48:07.906Z,27.8
2018-08-23T10:50:04.677Z,27.8
2018-08-23T10:52:05.436Z,27.8
2018-08-23T10:54:15.248Z,27.8
2018-08-23T10:56:04.945Z,27.8
2018-08-23T10:58:04.627Z,27.8
2018-08-23T11:00:07.794Z,27.8
2018-08-23T11:02:07.504Z,27.8
2018-08-23T11:04:05.204Z,27.8
2018-08-23T11:06:09.712Z,27.8
2018-08-23T11:08:10.465Z,27.8
2018-08-23T11:10:05.144Z,27.8
2018-08-23T11:12:05.412Z,27.8
2018-08-23T11:14:05.391Z,27.8
2018-08-23T11:16:05.078Z,27.8
2018-08-23T11:18:04.937Z,27.8
2018-08-23T11:20:04.640Z,27.8
2018-08-23T11:22:05.424Z,27.8
2018-08-23T11:24:07.693Z,27.8
2018-08-23T11:26:05.376Z,27.8
2018-08-23T11:28:05.065Z,27.8
2018-08-23T11:30:04.865Z,27.8
2018-08-23T11:32:07.229Z,27.8
2018-08-23T11:34:04.965Z,27.8
2018-08-23T11:36:04.640Z,27.8
2018-08-23T11:38:07.883Z,27.8
2018-08-23T11:40:04.767Z,27.8
2018-08-23T11:42:05.460Z,27.8
2018-08-23T11:44:05.361Z,27.7
2018-08-23T11:46:05.154Z,27.8
2018-08-23T11:48:04.818Z,27.8
2018-08-23T11:50:05.458Z,27.8
2018-08-23T11:52:05.159Z,27.8
2018-08-23T11:54:07.374Z,27.8
2018-08-23T11:56:05.051Z,27.8
2018-08-23T11:58:04.948Z,27.7
2018-08-23T12:00:07.573Z,27.8
2018-08-23T12:02:04.800Z,27.7
2018-08-23T12:04:05.518Z,27.7
2018-08-23T12:06:05.287Z,27.7
2018-08-23T12:08:04.969Z,27.8
2018-08-23T12:10:05.236Z,27.8
2018-08-23T12:12:04.970Z,27.8
2018-08-23T12:14:04.763Z,27.8
2018-08-23T12:16:05.551Z,27.8
2018-08-23T12:18:08.061Z,27.8
2018-08-23T12:20:05.355Z,27.8
2018-08-23T12:22:07.226Z,27.8
2018-08-23T12:24:04.954Z,27.8
2018-08-23T12:26:04.709Z,27.8
2018-08-23T12:28:04.727Z,27.8
2018-08-23T12:30:05.535Z,27.7
2018-08-23T12:32:05.294Z,27.8
2018-08-23T12:34:04.992Z,27.7
2018-08-23T12:36:04.818Z,27.8
2018-08-23T12:38:05.224Z,27.8
2018-08-23T12:40:17.752Z,27.7
2018-08-23T12:42:05.036Z,27.8
2018-08-23T12:44:04.793Z,27.8
2018-08-23T12:46:05.657Z,27.8
2018-08-23T12:48:04.899Z,27.7
2018-08-23T12:50:09.849Z,27.7
2018-08-23T12:52:04.738Z,27.7
2018-08-23T12:54:04.671Z,27.8
2018-08-23T12:56:13.033Z,27.8
2018-08-23T12:58:07.457Z,27.8
2018-08-23T13:00:05.257Z,27.8
2018-08-23T13:02:05.245Z,27.8
2018-08-23T13:04:05.365Z,27.8
2018-08-23T13:06:04.749Z,27.8
2018-08-23T13:08:05.529Z,27.8
2018-08-23T13:10:10.449Z,27.8
2018-08-23T13:12:04.643Z,27.8
2018-08-23T13:14:05.352Z,27.8
2018-08-23T13:16:05.115Z,27.8
2018-08-23T13:18:12.594Z,27.8
2018-08-23T13:20:05.250Z,27.8
2018-08-23T13:22:04.927Z,27.8
2018-08-23T13:24:04.614Z,27.8
2018-08-23T13:26:05.258Z,27.8
2018-08-23T13:28:04.962Z,27.7
2018-08-23T13:30:04.774Z,27.5
2018-08-23T13:32:07.371Z,27.4
2018-08-23T13:34:04.610Z,27.3
2018-08-23T13:36:07.943Z,27.1
2018-08-23T13:38:05.209Z,27.1
2018-08-23T13:40:07.498Z,27.2
2018-08-23T13:42:15.353Z,27.2
2018-08-23T13:44:05.134Z,27.2
2018-08-23T13:46:05.013Z,27.3
2018-08-23T13:48:04.813Z,27.4
2018-08-23T13:50:04.643Z,27.4
2018-08-23T13:52:05.303Z,27.4
2018-08-23T13:54:04.972Z,27.4
2018-08-23T13:56:04.904Z,27.5
2018-08-23T13:58:05.540Z,27.5
2018-08-23T14:00:12.378Z,27.6
2018-08-23T14:02:07.698Z,27.6
2018-08-23T14:04:05.569Z,27.6
2018-08-23T14:06:05.329Z,27.5
2018-08-23T14:08:04.937Z,27.4
2018-08-23T14:10:04.714Z,27.5
2018-08-23T14:12:05.424Z,27.6
2018-08-23T14:14:05.107Z,27.4
2018-08-23T14:16:10.427Z,27.2
2018-08-23T14:18:05.313Z,27.3
2018-08-23T14:20:05.242Z,27.2
2018-08-23T14:22:07.490Z,27.1
2018-08-23T14:24:05.173Z,27.1
2018-08-23T14:26:04.823Z,27.2
2018-08-23T14:28:09.798Z,27.1
2018-08-23T14:30:08.047Z,27.1
2018-08-23T14:32:04.963Z,27.1
2018-08-23T14:34:04.695Z,27.2
2018-08-23T14:36:10.511Z,27.1
2018-08-23T14:38:04.830Z,27.1
2018-08-23T14:40:08.595Z,27.1
2018-08-23T14:42:05.186Z,27.1
2018-08-23T14:44:07.426Z,26.9
2018-08-23T14:46:05.288Z,26.9
2018-08-23T14:48:12.841Z,26.7
2018-08-23T14:50:04.767Z,26.7
2018-08-23T14:52:04.789Z,26.8
2018-08-23T14:54:05.451Z,26.9
2018-08-23T14:56:07.717Z,26.7
2018-08-23T14:58:04.749Z,26.7
2018-08-23T15:00:05.460Z,26.8
2018-08-23T15:02:05.361Z,26.9
2018-08-23T15:04:05.062Z,27
2018-08-23T15:06:04.792Z,27.1
2018-08-23T15:08:04.725Z,27.2
2018-08-23T15:10:10.106Z,27.2
2018-08-23T15:12:04.809Z,27.2
2018-08-23T15:14:08.184Z,27.2
2018-08-23T15:17:08.382Z,27.1
2018-08-23T15:20:07.617Z,26.9
2018-08-23T15:22:05.126Z,26.9
2018-08-23T15:24:04.909Z,27
2018-08-23T15:26:05.668Z,26.9
2018-08-23T15:28:04.775Z,26.8
2018-08-23T15:30:13.118Z,26.8
2018-08-23T15:32:05.060Z,26.8
2018-08-23T15:34:10.197Z,26.8
2018-08-23T15:36:04.854Z,26.8
2018-08-23T15:38:05.577Z,26.7
2018-08-23T15:40:05.350Z,26.7
2018-08-23T15:42:05.176Z,26.8
2018-08-23T15:44:04.970Z,26.9
2018-08-23T15:46:05.145Z,26.9
2018-08-23T15:48:05.008Z,26.9
2018-08-23T15:50:05.225Z,26.8
2018-08-23T15:52:12.506Z,26.6
2018-08-23T15:54:15.313Z,26.6
2018-08-23T15:56:05.106Z,26.6
2018-08-23T15:58:04.808Z,26.8
2018-08-23T16:00:10.598Z,26.9
2018-08-23T16:02:07.775Z,27.1
2018-08-23T16:04:05.448Z,27.1
2018-08-23T16:06:05.126Z,27.2
2018-08-23T16:08:04.936Z,27.2
2018-08-23T16:10:07.257Z,27.1
2018-08-23T16:12:05.044Z,27.1
2018-08-23T16:14:05.200Z,27.2
2018-08-23T16:16:07.435Z,27.2
2018-08-23T16:18:10.371Z,27.2
2018-08-23T16:20:05.154Z,27.2
2018-08-23T16:22:04.922Z,27.2
2018-08-23T16:24:05.177Z,27.2
2018-08-23T16:26:07.437Z,27.2
2018-08-23T16:28:04.682Z,27.1
2018-08-23T16:30:05.521Z,27
2018-08-23T16:32:04.743Z,27
2018-08-23T16:34:05.159Z,27.1
2018-08-23T16:36:09.996Z,27.3
2018-08-23T16:38:04.749Z,27.3
2018-08-23T16:40:05.859Z,27.3
2018-08-23T16:42:05.500Z,27.3
2018-08-23T16:44:07.693Z,27.2
2018-08-23T16:46:05.369Z,27.1
2018-08-23T16:48:12.616Z,27.2
2018-08-23T16:50:05.306Z,27.2
2018-08-23T16:52:10.029Z,27.2
2018-08-23T16:54:09.765Z,27.2
2018-08-23T16:56:08.040Z,27.2
2018-08-23T16:58:04.742Z,27.2
2018-08-23T17:00:05.414Z,27.3
2018-08-23T17:02:07.655Z,27.2
2018-08-23T17:04:05.369Z,27.2
2018-08-23T17:06:05.464Z,27.1
2018-08-23T17:08:05.150Z,27
2018-08-23T17:10:04.890Z,26.9
2018-08-23T17:12:04.818Z,26.9
2018-08-23T17:14:07.544Z,27
2018-08-23T17:16:05.354Z,26.9
2018-08-23T17:18:05.383Z,27
2018-08-23T17:20:04.774Z,27.1
2018-08-23T17:22:05.463Z,27
2018-08-23T17:24:05.142Z,26.8
2018-08-23T17:26:04.803Z,26.8
2018-08-23T17:28:05.648Z,26.9
2018-08-23T17:30:05.311Z,27
2018-08-23T17:32:05.048Z,27
2018-08-23T17:34:04.754Z,26.8
2018-08-23T17:36:05.534Z,26.8
2018-08-23T17:38:05.195Z,26.7
2018-08-23T17:40:04.920Z,26.8
2018-08-23T17:42:12.215Z,26.7
2018-08-23T17:44:04.844Z,26.7
2018-08-23T17:46:13.155Z,26.9
2018-08-23T17:48:07.387Z,26.8
2018-08-23T17:50:10.143Z,26.8
2018-08-23T17:52:07.919Z,26.8
2018-08-23T17:54:05.169Z,26.8
2018-08-23T17:56:04.893Z,26.8
2018-08-23T17:58:04.648Z,26.7
2018-08-23T18:00:05.366Z,26.7
2018-08-23T18:02:05.172Z,26.8
2018-08-23T18:04:12.522Z,26.7
2018-08-23T18:06:07.770Z,26.7
2018-08-23T18:08:10.609Z,26.7
2018-08-23T18:10:10.352Z,26.7
2018-08-23T18:12:05.003Z,26.7
2018-08-23T18:14:09.691Z,26.8
2018-08-23T18:16:07.929Z,26.7
2018-08-23T18:18:04.833Z,26.7
2018-08-23T18:20:05.616Z,26.8
2018-08-23T18:22:05.677Z,26.8
2018-08-23T18:24:05.252Z,26.9
2018-08-23T18:26:05.519Z,26.8
2018-08-23T18:28:07.914Z,26.9
2018-08-23T18:30:05.333Z,26.9
2018-08-23T18:32:05.401Z,27
2018-08-23T18:34:05.439Z,27
2018-08-23T18:36:05.731Z,27
2018-08-23T18:38:08.055Z,27
2018-08-23T18:40:05.050Z,27
2018-08-23T18:42:04.728Z,26.9
2018-08-23T18:44:06.475Z,26.8
2018-08-23T18:46:07.832Z,26.6
2018-08-23T18:48:17.726Z,26.6
2018-08-23T18:50:05.223Z,26.6
2018-08-23T18:52:11.524Z,26.7
2018-08-23T18:54:04.909Z,26.7
2018-08-23T18:56:07.626Z,26.8
2018-08-23T18:58:05.377Z,26.8
2018-08-23T19:00:05.251Z,26.8
2018-08-23T19:02:05.423Z,26.8
2018-08-23T19:04:07.684Z,26.6
2018-08-23T19:06:05.431Z,26.6
2018-08-23T19:08:05.189Z,26.7
2018-08-23T19:10:05.528Z,26.7
2018-08-23T19:12:04.741Z,26.6
2018-08-23T19:14:10.476Z,26.6
2018-08-23T19:16:04.748Z,26.6
2018-08-23T19:18:04.725Z,26.6
2018-08-23T19:20:07.457Z,26.8
2018-08-23T19:22:05.192Z,26.8
2018-08-23T19:24:04.872Z,26.8
2018-08-23T19:26:05.550Z,26.9
2018-08-23T19:28:04.651Z,26.7
2018-08-23T19:30:07.869Z,26.8
2018-08-23T19:32:05.663Z,26.8
2018-08-23T19:34:05.369Z,26.8
2018-08-23T19:36:08.094Z,26.9
2018-08-23T19:38:04.829Z,26.8
2018-08-23T19:40:05.635Z,26.9
2018-08-23T19:42:09.880Z,26.7
2018-08-23T19:44:04.741Z,26.8
2018-08-23T19:46:05.451Z,26.7
2018-08-23T19:48:05.471Z,26.7
2018-08-23T19:50:04.757Z,26.7
2018-08-23T19:52:05.632Z,26.6
2018-08-23T19:54:05.402Z,26.7
2018-08-23T19:56:05.639Z,26.7
2018-08-23T19:58:05.388Z,26.8
2018-08-23T20:00:05.256Z,26.8
2018-08-23T20:02:07.613Z,26.8
2018-08-23T20:04:06.622Z,26.8
2018-08-23T20:06:07.532Z,26.8
2018-08-23T20:08:04.964Z,26.8
2018-08-23T20:10:04.935Z,26.7
2018-08-23T20:12:04.737Z,26.7
2018-08-23T20:14:10.072Z,26.7
2018-08-23T20:16:09.913Z,26.7
2018-08-23T20:18:05.068Z,26.7
2018-08-23T20:20:05.534Z,26.7
2018-08-23T20:22:12.857Z,26.6
2018-08-23T20:24:05.915Z,26.6
2018-08-23T20:26:05.018Z,26.6
2018-08-23T20:28:05.587Z,26.6
2018-08-23T20:30:04.868Z,26.6
2018-08-23T20:32:05.556Z,26.6
2018-08-23T20:34:05.293Z,26.6
2018-08-23T20:36:05.118Z,26.6
2018-08-23T20:38:04.804Z,26.6
2018-08-23T20:40:05.560Z,26.6
2018-08-23T20:42:05.476Z,26.6
2018-08-23T20:44:05.208Z,26.6
2018-08-23T20:46:04.973Z,26.6
2018-08-23T20:48:04.718Z,26.4
2018-08-23T20:50:05.513Z,26.5
2018-08-23T20:52:15.329Z,26.5
2018-08-23T20:54:05.040Z,26.5
2018-08-23T20:56:07.283Z,26.4
2018-08-23T20:58:05.065Z,26.4
2018-08-23T21:00:05.359Z,26.4
2018-08-23T21:02:04.716Z,26.5
2018-08-23T21:04:05.529Z,26.5
2018-08-23T21:06:07.720Z,26.5
2018-08-23T21:08:04.947Z,26.5
2018-08-23T21:10:04.729Z,26.5
2018-08-23T21:12:07.716Z,26.4
2018-08-23T21:14:07.925Z,26.5
2018-08-23T21:16:12.623Z,26.4
2018-08-23T21:18:05.633Z,26.5
2018-08-23T21:20:04.726Z,26.5
2018-08-23T21:22:05.423Z,26.5
2018-08-23T21:24:05.417Z,26.5
2018-08-23T21:26:07.387Z,26.4
2018-08-23T21:28:05.104Z,26.4
2018-08-23T21:30:04.780Z,26.4
2018-08-23T21:32:08.134Z,26.4
2018-08-23T21:34:07.367Z,26.4
2018-08-23T21:36:05.058Z,26.3
2018-08-23T21:38:04.738Z,26.4
2018-08-23T21:40:05.391Z,26.4
2018-08-23T21:42:05.064Z,26.3
2018-08-23T21:44:04.762Z,26.4
2018-08-23T21:46:05.532Z,26.3
2018-08-23T21:48:05.212Z,26.3
2018-08-23T21:50:07.505Z,26.3
2018-08-23T21:52:05.202Z,26.3
2018-08-23T21:54:05.749Z,26.3
2018-08-23T21:56:05.197Z,26.3
2018-08-23T21:58:05.349Z,26.3
2018-08-23T22:00:07.569Z,26.2
2018-08-23T22:02:05.224Z,26.2
2018-08-23T22:04:04.971Z,26.2
2018-08-23T22:06:04.705Z,26.3
2018-08-23T22:08:04.930Z,26.3
2018-08-23T22:10:04.865Z,26.3
2018-08-23T22:12:07.623Z,26.3
2018-08-23T22:14:04.825Z,26.3
2018-08-23T22:16:04.692Z,26.3
2018-08-23T22:18:05.595Z,26.3
2018-08-23T22:20:05.409Z,26.3
2018-08-23T22:22:08.134Z,26.3
2018-08-23T22:24:05.436Z,26.3
2018-08-23T22:26:05.129Z,26.3
2018-08-23T22:28:07.386Z,26.2
2018-08-23T22:30:05.029Z,26.2
2018-08-23T22:32:04.690Z,26.3
2018-08-23T22:34:05.411Z,26.2
2018-08-23T22:36:05.184Z,26.3
2018-08-23T22:38:07.905Z,26.2
2018-08-23T22:40:08.321Z,26.2
2018-08-23T22:42:07.556Z,26.2
2018-08-23T22:44:10.810Z,26.2
2018-08-23T22:46:07.484Z,26.1
2018-08-23T22:48:05.200Z,26.1
2018-08-23T22:50:04.914Z,26.1
2018-08-23T22:52:05.260Z,26
2018-08-23T22:54:05.036Z,25.9
2018-08-23T22:56:07.216Z,25.9
2018-08-23T22:58:04.921Z,25.9
2018-08-23T23:00:04.691Z,25.9
2018-08-23T23:02:04.871Z,25.7
2018-08-23T23:04:04.750Z,25.6
2018-08-23T23:06:05.472Z,25.6
2018-08-23T23:08:05.185Z,25.6
2018-08-23T23:10:04.872Z,25.5
2018-08-23T23:12:07.341Z,25.3
2018-08-23T23:14:05.564Z,25.3
2018-08-23T23:16:04.804Z,25.3
2018-08-23T23:18:04.771Z,25.3
2018-08-23T23:20:05.413Z,25.3
2018-08-23T23:22:07.645Z,25.2
2018-08-23T23:24:08.109Z,25.3
2018-08-23T23:26:04.830Z,25.2
2018-08-23T23:28:07.157Z,25.3
2018-08-23T23:30:07.475Z,25.3
2018-08-23T23:32:07.807Z,25.4
2018-08-23T23:34:08.075Z,25.4
2018-08-23T23:36:05.098Z,25.4
2018-08-23T23:38:09.896Z,25.5
2018-08-23T23:40:10.880Z,25.3
2018-08-23T23:42:13.142Z,25.2
2018-08-23T23:44:07.377Z,25.2
2018-08-23T23:46:05.165Z,25.2
2018-08-23T23:48:04.666Z,25.3
2018-08-23T23:50:05.430Z,25.2
2018-08-23T23:52:05.192Z,25.2
2018-08-23T23:54:07.671Z,25.2
2018-08-23T23:56:05.380Z,25.2
2018-08-23T23:58:05.047Z,25.2
